This is the latest recevied weather packets stored in our database for station/object KD7ECD. If no packets are shown the sender has not sent any weather packets the latest 10 day(s).
| Time | Temp. | Humidity | Pressure | Rain* | Wind** | Luminosity | Snow |
|---|---|---|---|---|---|---|---|
| 1777918000 | 16.67° C | 61% | 1017.8 hPa | 0 mm | - | 964 W/m² | - |
| 1777917395 | 16.11° C | 62% | 1017.7 hPa | 0 mm | - | 979 W/m² | - |
| 1777916790 | 15.56° C | 62% | 1017.5 hPa | 0 mm | - | 508 W/m² | - |
| 1777916189 | 15.56° C | 67% | 1017.8 hPa | 0 mm | - | 1053 W/m² | - |
| 1777915588 | 15.56° C | 67% | 1017.4 hPa | 0 mm | - | 923 W/m² | - |
| 1777914987 | 15° C | 67% | 1017.2 hPa | 0 mm | - | 677 W/m² | - |
| 1777914386 | 15° C | 68% | 1017.4 hPa | 0 mm | - | 278 W/m² | - |
| 1777913786 | 15° C | 69% | 1017.2 hPa | 0 mm | - | 698 W/m² | - |
| 1777913185 | 15° C | 69% | 1017.3 hPa | 0 mm | - | 667 W/m² | - |
| 1777912584 | 15° C | 71% | 1017.1 hPa | 0 mm | - | 533 W/m² | - |
| 1777911982 | 14.44° C | 72% | 1017.1 hPa | 0 mm | - | 573 W/m² | - |
| 1777911380 | 13.89° C | 74% | 1017 hPa | 0 mm | - | 598 W/m² | - |
| 1777910775 | 13.89° C | 76% | 1017.3 hPa | 0 mm | - | 585 W/m² | - |
| 1777910174 | 13.33° C | 77% | 1017.1 hPa | 0 mm | - | 491 W/m² | - |
| 1777909574 | 13.33° C | 78% | 1017.5 hPa | 0 mm | - | 439 W/m² | - |
| 1777908969 | 13.33° C | 79% | 1017.6 hPa | 0 mm | - | 418 W/m² | - |
| 1777908370 | 12.78° C | 79% | 1017.5 hPa | 0 mm | - | 381 W/m² | - |
| 1777907768 | 12.78° C | 79% | 1017.6 hPa | 0 mm | - | 215 W/m² | - |
| 1777907166 | 12.22° C | 82% | 1017.4 hPa | 0 mm | - | 190 W/m² | - |
| 1777906566 | 11.67° C | 85% | 1017.5 hPa | 0 mm | - | 142 W/m² | - |
| 1777905964 | 11.11° C | 86% | 1017.9 hPa | 0 mm | - | 83 W/m² | - |
| 1777905364 | 10.56° C | 89% | 1017.6 hPa | 0 mm | - | 75 W/m² | - |
| 1777904759 | 10° C | 90% | 1017.4 hPa | 0 mm | - | 65 W/m² | - |
| 1777904158 | 8.89° C | 91% | 1017.5 hPa | 0 mm | - | 43 W/m² | - |
| 1777903557 | 8.33° C | 90% | 1017.2 hPa | 0 mm | - | 29 W/m² | - |
* Rain latest hour (hover to see other rain measurements)
** Current wind speed in m/s (hover to see current wind gust speed)